createdAt,value
2019-01-05T00:02:12.695Z,5.07
2019-01-05T00:04:52.203Z,5.53
2019-01-05T00:07:41.368Z,8.30
2019-01-05T00:10:11.994Z,7.43
2019-01-05T00:12:45.722Z,6.17
2019-01-05T00:15:16.591Z,6.00
2019-01-05T00:17:59.032Z,7.20
2019-01-05T00:20:32.564Z,8.10
2019-01-05T00:23:12.831Z,6.77
2019-01-05T00:26:00.428Z,4.97
2019-01-05T00:28:35.123Z,8.17
2019-01-05T00:31:19.560Z,5.90
2019-01-05T00:34:03.170Z,8.30
2019-01-05T00:36:47.495Z,9.47
2019-01-05T00:39:21.115Z,14.37
2019-01-05T00:42:09.237Z,10.07
2019-01-05T00:44:40.788Z,8.53
2019-01-05T00:47:15.074Z,5.87
2019-01-05T00:50:03.316Z,6.03
2019-01-05T00:52:53.327Z,6.67
2019-01-05T00:55:24.994Z,9.13
2019-01-05T00:58:14.095Z,9.87
2019-01-05T01:01:02.371Z,6.40
2019-01-05T01:03:49.013Z,10.37
2019-01-05T01:06:25.228Z,7.97
2019-01-05T01:09:02.969Z,7.10
2019-01-05T01:11:43.227Z,4.80
2019-01-05T01:14:19.510Z,5.47
2019-01-05T01:16:59.156Z,3.40
2019-01-05T01:19:35.796Z,3.53
2019-01-05T01:22:16.454Z,3.97
2019-01-05T01:25:02.911Z,6.13
2019-01-05T01:27:42.348Z,4.23
2019-01-05T01:30:13.053Z,5.83
2019-01-05T01:33:01.969Z,4.13
2019-01-05T01:35:42.038Z,2.83
2019-01-05T01:38:21.402Z,5.00
2019-01-05T01:41:08.531Z,5.20
2019-01-05T01:43:55.623Z,2.80
2019-01-05T01:46:38.441Z,3.83
2019-01-05T01:49:09.056Z,5.77
2019-01-05T01:51:39.771Z,6.63
2019-01-05T01:54:23.656Z,6.60
2019-01-05T01:56:54.285Z,6.87
2019-01-05T01:59:28.652Z,6.70
2019-01-05T02:02:18.148Z,7.30
2019-01-05T02:04:55.670Z,6.57
2019-01-05T02:07:31.741Z,6.33
2019-01-05T02:10:06.811Z,6.27
2019-01-05T02:12:43.105Z,8.23
2019-01-05T02:15:32.699Z,5.40
2019-01-05T02:18:06.373Z,7.27
2019-01-05T02:20:48.982Z,3.67
2019-01-05T02:24:08.460Z,3.97
2019-01-05T02:27:12.191Z,3.97
2019-01-05T02:30:17.325Z,6.97
2019-01-05T02:33:08.787Z,4.20
2019-01-05T02:36:15.057Z,3.10
2019-01-05T02:39:22.969Z,4.20
2019-01-05T02:42:08.009Z,3.27
2019-01-05T02:45:01.048Z,4.40
2019-01-05T02:47:54.381Z,3.73
2019-01-05T02:50:46.434Z,3.40
2019-01-05T02:53:53.805Z,2.37
2019-01-05T02:56:50.022Z,4.90
2019-01-05T02:59:41.679Z,3.83
2019-01-05T03:02:33.564Z,3.53
2019-01-05T03:05:36.375Z,4.33
2019-01-05T03:08:38.174Z,4.43
2019-01-05T03:11:27.017Z,5.17
2019-01-05T03:14:24.861Z,4.87
2019-01-05T03:17:28.241Z,3.83
2019-01-05T03:20:38.417Z,3.90
2019-01-05T03:23:48.141Z,3.17
2019-01-05T03:26:50.134Z,5.27
2019-01-05T03:29:59.985Z,8.30
2019-01-05T03:33:00.505Z,3.93
2019-01-05T03:36:21.199Z,4.00
2019-01-05T03:39:27.068Z,6.73
2019-01-05T03:42:18.614Z,4.20
2019-01-05T03:45:17.414Z,4.00
2019-01-05T03:48:41.672Z,4.23
2019-01-05T03:51:49.880Z,3.03
2019-01-05T03:54:50.457Z,5.23
2019-01-05T03:57:24.077Z,8.00
2019-01-05T04:00:15.803Z,6.40
2019-01-05T04:03:07.146Z,6.63
2019-01-05T04:06:15.368Z,5.00
2019-01-05T04:09:10.120Z,3.93
2019-01-05T04:12:03.650Z,6.57
2019-01-05T04:14:57.096Z,7.50
2019-01-05T04:17:56.294Z,4.60
2019-01-05T04:21:03.130Z,4.47
2019-01-05T04:23:41.970Z,5.97
2019-01-05T04:26:41.101Z,6.53
2019-01-05T04:29:26.177Z,7.00
2019-01-05T04:32:27.846Z,5.10
2019-01-05T04:35:25.036Z,5.17
2019-01-05T04:38:24.272Z,6.90
2019-01-05T04:41:16.023Z,6.85
2019-01-05T04:44:32.505Z,9.63
2019-01-05T04:47:21.063Z,10.60
2019-01-05T04:50:23.145Z,10.28
2019-01-05T04:53:48.744Z,14.23
2019-01-05T04:56:55.726Z,12.53
2019-01-05T04:59:43.930Z,12.00
2019-01-05T05:02:26.208Z,13.22
2019-01-05T05:05:21.153Z,13.10
2019-01-05T05:08:26.858Z,11.40
2019-01-05T05:11:40.688Z,13.72
2019-01-05T05:14:25.842Z,10.78
2019-01-05T05:17:40.009Z,10.88
2019-01-05T05:20:39.283Z,12.13
2019-01-05T05:23:18.393Z,13.28
2019-01-05T05:26:04.631Z,12.30
2019-01-05T05:29:13.067Z,12.45
2019-01-05T05:32:01.851Z,12.35
2019-01-05T05:35:15.894Z,10.15
2019-01-05T05:38:25.221Z,11.73
2019-01-05T05:41:44.119Z,12.98
2019-01-05T05:44:46.163Z,14.70
2019-01-05T05:47:29.366Z,11.68
2019-01-05T05:50:29.800Z,12.40
2019-01-05T05:53:21.208Z,11.70
2019-01-05T05:56:19.972Z,11.33
2019-01-05T05:59:11.046Z,10.82
2019-01-05T06:02:23.246Z,9.70
2019-01-05T06:05:22.214Z,11.55
2019-01-05T06:08:27.134Z,11.10
2019-01-05T06:11:40.190Z,10.15
2019-01-05T06:14:41.210Z,9.08
2019-01-05T06:17:52.595Z,11.18
2019-01-05T06:20:38.732Z,18.95
2019-01-05T06:23:26.787Z,20.77
2019-01-05T06:26:19.770Z,17.92
2019-01-05T06:29:27.796Z,16.45
2019-01-05T06:32:23.583Z,13.90
2019-01-05T06:35:08.588Z,10.15
2019-01-05T06:38:04.168Z,11.53
2019-01-05T06:41:24.867Z,12.07
2019-01-05T06:44:20.493Z,12.85
2019-01-05T06:47:32.601Z,89.95
2019-01-05T06:50:25.907Z,116.20
2019-01-05T06:53:34.289Z,103.90
2019-01-05T06:56:57.014Z,111.05
2019-01-05T06:59:39.633Z,123.53
2019-01-05T07:02:27.823Z,78.60
2019-01-05T07:05:37.819Z,33.53
2019-01-05T07:08:38.867Z,33.78
2019-01-05T07:11:16.625Z,62.08
2019-01-05T07:14:05.529Z,101.92
2019-01-05T07:17:18.845Z,41.18
2019-01-05T07:20:42.446Z,36.85
2019-01-05T07:23:37.322Z,29.85
2019-01-05T07:26:45.216Z,23.87
2019-01-05T07:29:57.512Z,35.48
2019-01-05T07:33:05.284Z,51.77
2019-01-05T07:35:42.009Z,66.17
2019-01-05T07:38:47.476Z,82.05
2019-01-05T07:41:29.987Z,63.85
2019-01-05T07:44:18.854Z,64.03
2019-01-05T07:47:35.428Z,59.83
2019-01-05T07:50:44.562Z,57.20
2019-01-05T07:53:50.110Z,47.80
2019-01-05T07:57:07.423Z,42.23
2019-01-05T08:00:17.287Z,31.37
2019-01-05T08:03:07.377Z,33.15
2019-01-05T08:06:12.205Z,27.32
2019-01-05T08:09:18.817Z,33.25
2019-01-05T08:12:22.230Z,24.75
2019-01-05T08:15:04.228Z,24.23
2019-01-05T08:17:50.263Z,27.27
2019-01-05T08:20:59.421Z,31.25
2019-01-05T08:23:59.151Z,51.33
2019-01-05T08:26:58.437Z,38.92
2019-01-05T08:30:10.349Z,28.92
2019-01-05T08:32:55.677Z,32.88
2019-01-05T08:35:32.973Z,18.80
2019-01-05T08:38:43.539Z,30.57
2019-01-05T08:41:47.676Z,25.23
2019-01-05T08:44:39.356Z,21.82
2019-01-05T08:47:32.561Z,24.60
2019-01-05T08:50:46.727Z,20.12
2019-01-05T08:53:35.045Z,19.10
2019-01-05T08:56:28.670Z,35.73
2019-01-05T08:59:38.554Z,32.88
2019-01-05T09:02:34.835Z,25.48
2019-01-05T09:05:58.596Z,28.02
2019-01-05T09:09:06.980Z,24.82
2019-01-05T09:11:58.292Z,28.95
2019-01-05T09:14:48.652Z,17.57
2019-01-05T09:17:47.847Z,22.48
2019-01-05T09:20:41.188Z,22.87
2019-01-05T09:23:29.738Z,32.42
2019-01-05T09:26:35.073Z,27.52
2019-01-05T09:29:26.224Z,30.90
2019-01-05T09:32:21.266Z,32.95
2019-01-05T09:35:01.434Z,19.98
2019-01-05T09:38:03.812Z,21.62
2019-01-05T09:40:56.024Z,22.90
2019-01-05T09:43:49.316Z,17.20
2019-01-05T09:47:04.566Z,23.65
2019-01-05T09:49:49.701Z,20.43
2019-01-05T09:53:13.014Z,20.90
2019-01-05T09:56:14.476Z,21.48
2019-01-05T09:59:15.493Z,24.72
2019-01-05T10:02:29.773Z,24.92
2019-01-05T10:05:53.455Z,18.32
2019-01-05T10:09:01.084Z,19.87
2019-01-05T10:12:17.804Z,18.42
2019-01-05T10:15:36.863Z,18.15
2019-01-05T10:18:35.665Z,19.37
2019-01-05T10:21:41.916Z,18.62
2019-01-05T10:24:49.446Z,17.57
2019-01-05T10:27:50.114Z,18.80
2019-01-05T10:31:06.307Z,14.10
2019-01-05T10:34:00.671Z,16.32
2019-01-05T10:37:09.107Z,15.78
2019-01-05T10:40:19.369Z,20.37
2019-01-05T10:43:35.649Z,16.07
2019-01-05T10:46:26.141Z,13.48
2019-01-05T10:49:02.755Z,16.65
2019-01-05T10:51:57.718Z,15.75
2019-01-05T10:55:01.752Z,21.85
2019-01-05T10:58:07.017Z,17.98
2019-01-05T11:01:07.095Z,18.35
2019-01-05T11:03:40.467Z,17.50
2019-01-05T11:07:04.469Z,15.93
2019-01-05T11:10:13.307Z,15.15
2019-01-05T11:13:22.958Z,12.45
2019-01-05T11:16:08.989Z,13.85
2019-01-05T11:19:14.051Z,13.65
2019-01-05T11:22:07.529Z,12.00
2019-01-05T11:25:09.792Z,15.32
2019-01-05T11:27:52.207Z,13.53
2019-01-05T11:31:10.250Z,13.58
2019-01-05T11:33:49.888Z,14.05
2019-01-05T11:37:05.260Z,16.02
2019-01-05T11:40:01.731Z,14.28
2019-01-05T11:43:13.092Z,18.95
2019-01-05T11:46:28.241Z,11.93
2019-01-05T11:49:45.199Z,17.12
2019-01-05T11:53:08.325Z,14.47
2019-01-05T11:56:05.735Z,16.52
2019-01-05T11:58:54.462Z,14.95
2019-01-05T12:01:40.140Z,16.45
2019-01-05T12:04:31.771Z,19.82
2019-01-05T12:07:19.916Z,25.68
2019-01-05T12:10:05.586Z,26.85
2019-01-05T12:13:24.961Z,32.73
2019-01-05T12:16:44.230Z,26.23
2019-01-05T12:19:42.109Z,24.25
2019-01-05T12:22:50.799Z,26.05
2019-01-05T12:25:41.889Z,24.90
2019-01-05T12:28:36.092Z,24.05
2019-01-05T12:31:37.791Z,23.45
2019-01-05T12:34:44.259Z,18.85
2019-01-05T12:37:47.460Z,22.77
2019-01-05T12:41:09.680Z,23.67
2019-01-05T12:44:12.154Z,18.37
2019-01-05T12:46:55.276Z,20.40
2019-01-05T12:49:47.248Z,13.60
2019-01-05T12:52:58.572Z,14.95
2019-01-05T12:55:47.658Z,12.65
2019-01-05T12:58:55.646Z,16.73
2019-01-05T13:01:59.429Z,19.05
2019-01-05T13:05:10.542Z,16.00
2019-01-05T13:08:06.880Z,16.17
2019-01-05T13:10:57.104Z,13.25
2019-01-05T13:13:48.401Z,13.30
2019-01-05T13:16:45.593Z,10.48
2019-01-05T13:19:50.857Z,16.20
2019-01-05T13:22:59.222Z,16.40
2019-01-05T13:25:59.625Z,16.60
2019-01-05T13:28:44.618Z,16.97
2019-01-05T13:31:24.234Z,17.15
2019-01-05T13:34:34.465Z,13.55
2019-01-05T13:37:28.588Z,18.57
2019-01-05T13:40:46.086Z,19.37
2019-01-05T13:43:53.293Z,19.00
2019-01-05T13:46:48.950Z,19.87
2019-01-05T13:49:34.517Z,24.35
2019-01-05T13:52:44.401Z,22.48
2019-01-05T13:55:21.001Z,24.20
2019-01-05T13:58:03.011Z,19.05
2019-01-05T14:00:36.763Z,17.50
2019-01-05T14:03:24.098Z,20.40
2019-01-05T14:06:10.573Z,19.27
2019-01-05T14:08:59.376Z,14.43
2019-01-05T14:11:35.684Z,17.23
2019-01-05T14:14:23.096Z,25.45
2019-01-05T14:16:53.808Z,23.52
2019-01-05T14:19:24.595Z,20.17
2019-01-05T14:21:59.091Z,20.77
2019-01-05T14:24:46.699Z,20.60
2019-01-05T14:27:33.937Z,18.50
2019-01-05T14:30:16.539Z,18.45
2019-01-05T14:33:03.954Z,23.62
2019-01-05T14:35:43.437Z,20.95
2019-01-05T14:38:30.704Z,20.37
2019-01-05T14:41:00.874Z,24.72
2019-01-05T14:43:47.451Z,23.42
2019-01-05T14:46:20.644Z,28.80
2019-01-05T14:48:51.424Z,15.80
2019-01-05T14:51:22.339Z,19.00
2019-01-05T14:53:59.393Z,21.33
2019-01-05T14:56:30.140Z,20.62
2019-01-05T14:59:19.334Z,17.17
2019-01-05T15:01:55.890Z,22.45
2019-01-05T15:04:27.084Z,29.92
2019-01-05T15:07:14.327Z,28.38
2019-01-05T15:09:50.952Z,25.37
2019-01-05T15:12:38.394Z,27.98
2019-01-05T15:15:26.936Z,28.02
2019-01-05T15:18:14.272Z,36.38
2019-01-05T15:21:00.938Z,50.78
2019-01-05T15:23:37.315Z,71.45
2019-01-05T15:26:26.050Z,33.08
2019-01-05T15:29:01.913Z,144.55
2019-01-05T15:31:44.000Z,77.32
2019-01-05T15:34:30.029Z,27.77
2019-01-05T15:37:00.496Z,21.62
2019-01-05T15:39:32.166Z,41.95
2019-01-05T15:42:20.162Z,63.80
2019-01-05T15:44:53.751Z,28.65
2019-01-05T15:47:28.203Z,31.65
2019-01-05T15:50:04.883Z,34.30
2019-01-05T15:52:38.346Z,48.95
2019-01-05T15:55:11.732Z,42.85
2019-01-05T15:57:42.489Z,42.98
2019-01-05T16:00:31.849Z,46.85
2019-01-05T16:03:19.174Z,32.00
2019-01-05T16:05:53.991Z,30.80
2019-01-05T16:08:30.401Z,34.10
2019-01-05T16:11:01.219Z,33.45
2019-01-05T16:13:31.426Z,22.90
2019-01-05T16:16:18.061Z,23.20
2019-01-05T16:18:57.247Z,20.32
2019-01-05T16:21:37.059Z,30.88
2019-01-05T16:24:10.932Z,23.98
2019-01-05T16:26:59.157Z,19.12
2019-01-05T16:29:42.063Z,24.07
2019-01-05T16:32:29.599Z,18.50
2019-01-05T16:35:01.149Z,21.00
2019-01-05T16:37:50.101Z,21.85
2019-01-05T16:40:32.622Z,22.95
2019-01-05T16:43:03.415Z,27.52
2019-01-05T16:45:35.230Z,22.13
2019-01-05T16:48:08.684Z,23.25
2019-01-05T16:50:56.821Z,21.60
2019-01-05T16:53:27.657Z,27.95
2019-01-05T16:56:06.764Z,17.87
2019-01-05T16:58:39.661Z,21.85
2019-01-05T17:01:22.453Z,27.87
2019-01-05T17:04:04.027Z,21.95
2019-01-05T17:06:37.947Z,24.77
2019-01-05T17:09:26.468Z,27.45
2019-01-05T17:12:14.189Z,32.42
2019-01-05T17:14:47.815Z,38.75
2019-01-05T17:17:37.364Z,31.00
2019-01-05T17:20:14.681Z,32.80
2019-01-05T17:22:54.098Z,32.42
2019-01-05T17:25:30.999Z,26.20
2019-01-05T17:28:18.324Z,29.40
2019-01-05T17:30:58.261Z,54.88
2019-01-05T17:33:45.762Z,43.75
2019-01-05T17:36:16.538Z,41.58
2019-01-05T17:38:47.343Z,45.95
2019-01-05T17:41:24.091Z,41.80
2019-01-05T17:43:54.786Z,35.65
2019-01-05T17:46:42.746Z,34.75
2019-01-05T17:49:22.828Z,30.05
2019-01-05T17:51:56.472Z,33.30
2019-01-05T17:54:27.304Z,28.95
2019-01-05T17:57:14.489Z,43.38
2019-01-05T17:59:45.058Z,26.85
2019-01-05T18:02:16.063Z,25.60
2019-01-05T18:05:03.137Z,18.00
2019-01-05T18:07:33.839Z,21.17
2019-01-05T18:10:04.510Z,20.90
2019-01-05T18:12:49.907Z,19.30
2019-01-05T18:15:29.862Z,18.33
2019-01-05T18:18:00.445Z,14.70
2019-01-05T18:20:46.202Z,17.40
2019-01-05T18:23:34.683Z,16.00
2019-01-05T18:26:04.921Z,17.67
2019-01-05T18:28:37.793Z,19.50
2019-01-05T18:31:13.901Z,17.03
2019-01-05T18:33:50.443Z,21.40
2019-01-05T18:36:23.761Z,20.67
2019-01-05T18:39:00.191Z,20.33
2019-01-05T18:41:33.603Z,15.57
2019-01-05T18:44:16.576Z,16.63
2019-01-05T18:47:05.744Z,19.60
2019-01-05T18:49:36.866Z,15.10
2019-01-05T18:52:25.231Z,15.80
2019-01-05T18:54:55.275Z,16.47
2019-01-05T18:57:38.085Z,16.10
2019-01-05T19:00:17.283Z,16.20
2019-01-05T19:02:57.077Z,16.70
2019-01-05T19:05:44.539Z,15.00
2019-01-05T19:08:18.519Z,17.43
2019-01-05T19:10:49.333Z,19.60
2019-01-05T19:13:32.034Z,16.70
2019-01-05T19:16:02.744Z,14.03
2019-01-05T19:18:49.734Z,14.23
2019-01-05T19:21:20.337Z,13.30
2019-01-05T19:23:53.953Z,14.67
2019-01-05T19:26:24.897Z,15.00
2019-01-05T19:28:55.593Z,13.27
2019-01-05T19:31:26.284Z,9.00
2019-01-05T19:34:14.027Z,6.37
2019-01-05T19:36:51.322Z,5.37
2019-01-05T19:39:34.034Z,5.83
2019-01-05T19:42:08.029Z,5.00
2019-01-05T19:44:54.344Z,4.93
2019-01-05T19:47:40.951Z,3.72
2019-01-05T19:50:23.219Z,7.30
2019-01-05T19:52:56.763Z,4.00
2019-01-05T19:55:42.132Z,4.57
2019-01-05T19:58:21.369Z,3.67
2019-01-05T20:01:07.737Z,3.33
2019-01-05T20:03:56.015Z,3.63
2019-01-05T20:06:38.194Z,4.37
2019-01-05T20:09:11.239Z,4.67
2019-01-05T20:11:42.315Z,3.57
2019-01-05T20:14:15.445Z,3.17
2019-01-05T20:17:02.491Z,3.93
2019-01-05T20:19:39.052Z,3.67
2019-01-05T20:22:28.655Z,3.83
2019-01-05T20:25:04.907Z,2.83
2019-01-05T20:27:52.413Z,6.30
2019-01-05T20:30:40.581Z,3.07
2019-01-05T20:33:13.473Z,3.73
2019-01-05T20:35:55.376Z,3.10
2019-01-05T20:38:40.490Z,3.27
2019-01-05T20:41:19.633Z,4.87
2019-01-05T20:44:05.508Z,3.03
2019-01-05T20:46:38.979Z,6.00
2019-01-05T20:49:09.821Z,4.80
2019-01-05T20:51:49.653Z,4.10
2019-01-05T20:54:20.365Z,3.17
2019-01-05T20:56:54.311Z,3.07
2019-01-05T20:59:25.145Z,4.87
2019-01-05T21:01:59.186Z,3.53
2019-01-05T21:04:29.831Z,2.50
2019-01-05T21:07:03.110Z,3.37
2019-01-05T21:09:46.152Z,5.90
2019-01-05T21:12:17.974Z,3.77
2019-01-05T21:15:05.511Z,3.10
2019-01-05T21:17:52.332Z,4.47
2019-01-05T21:20:28.463Z,3.03
2019-01-05T21:22:58.686Z,4.50
2019-01-05T21:25:45.079Z,2.93
2019-01-05T21:28:15.285Z,3.10
2019-01-05T21:31:01.961Z,5.73
2019-01-05T21:33:35.126Z,3.67
2019-01-05T21:36:22.026Z,5.00
2019-01-05T21:38:55.700Z,4.43
2019-01-05T21:41:29.440Z,4.43
2019-01-05T21:44:00.140Z,4.23
2019-01-05T21:46:37.270Z,3.63
2019-01-05T21:49:19.512Z,5.00
2019-01-05T21:52:07.412Z,5.83
2019-01-05T21:54:38.111Z,7.90
2019-01-05T21:57:17.742Z,3.50
2019-01-05T22:00:04.555Z,3.93
2019-01-05T22:02:38.039Z,3.90
2019-01-05T22:05:19.978Z,3.33
2019-01-05T22:07:55.847Z,3.50
2019-01-05T22:10:43.466Z,3.77
2019-01-05T22:13:19.614Z,7.77
2019-01-05T22:15:56.102Z,2.80
2019-01-05T22:18:43.493Z,4.53
2019-01-05T22:21:17.025Z,3.70
2019-01-05T22:24:04.608Z,5.63
2019-01-05T22:26:51.490Z,3.50
2019-01-05T22:29:37.363Z,3.37
2019-01-05T22:32:22.878Z,4.10
2019-01-05T22:35:09.951Z,4.07
2019-01-05T22:37:46.531Z,9.03
2019-01-05T22:40:18.380Z,6.53
2019-01-05T22:43:01.077Z,4.67
2019-01-05T22:45:34.472Z,5.40
2019-01-05T22:48:21.206Z,3.60
2019-01-05T22:50:51.920Z,8.67
2019-01-05T22:53:27.710Z,5.33
2019-01-05T22:56:14.603Z,4.83
2019-01-05T22:59:00.318Z,4.50
2019-01-05T23:01:31.291Z,5.70
2019-01-05T23:04:02.195Z,4.03
2019-01-05T23:06:48.828Z,3.98
2019-01-05T23:09:19.329Z,3.87
2019-01-05T23:12:08.652Z,7.15
2019-01-05T23:14:39.335Z,3.40
2019-01-05T23:17:21.886Z,5.37
2019-01-05T23:20:10.244Z,4.50
2019-01-05T23:22:43.961Z,3.30
2019-01-05T23:25:17.727Z,3.20
2019-01-05T23:27:57.479Z,4.13
2019-01-05T23:30:44.257Z,4.20
2019-01-05T23:33:29.480Z,3.27
2019-01-05T23:35:59.719Z,3.63
2019-01-05T23:38:49.792Z,7.20
2019-01-05T23:41:16.370Z,4.63
2019-01-05T23:44:03.743Z,5.90
2019-01-05T23:46:46.766Z,3.83
2019-01-05T23:49:20.580Z,4.33
2019-01-05T23:51:51.275Z,4.15
2019-01-05T23:54:22.053Z,4.65
2019-01-05T23:57:05.053Z,4.35
2019-01-05T23:59:41.199Z,4.60
